Time;durP1;ratioP1;P1;durP2;ratioP2;P2;SDS_P1;SDS_P2;PMS_P1;PMS_P2;Temp;Humidity;BMP_temperature;BMP_pressure;BME280_temperature;BME280_humidity;BME280_pressure;Samples;Min_cycle;Max_cycle;Signal;HPM_P1;HPM_P2
2021/08/02 00:01:30;;;;;;;1.35;1.20;;;21.10;65.00;;;;;;5101461;27;20265;-65
2021/08/02 00:04:03;;;;;;;1.58;1.10;;;21.10;65.00;;;;;;5134047;27;20244;-66
2021/08/02 00:06:36;;;;;;;2.13;1.20;;;21.10;65.00;;;;;;5116239;27;20538;-66
2021/08/02 00:09:03;;;;;;;1.80;1.17;;;21.10;65.10;;;;;;5135228;27;20540;-65
2021/08/02 00:11:34;;;;;;;1.17;1.02;;;21.10;65.00;;;;;;5134590;27;20176;-65
2021/08/02 00:14:03;;;;;;;3.25;1.83;;;21.10;65.00;;;;;;5115541;27;20172;-65
2021/08/02 00:16:28;;;;;;;1.20;1.02;;;21.10;65.90;;;;;;5116664;27;20180;-64
2021/08/02 00:18:54;;;;;;;1.48;1.30;;;21.10;65.10;;;;;;5133809;27;20216;-64
2021/08/02 00:21:19;;;;;;;1.48;1.20;;;21.10;65.10;;;;;;5134230;27;20211;-64
2021/08/02 00:23:45;;;;;;;1.00;0.85;;;21.10;65.10;;;;;;5134401;27;20177;-65
2021/08/02 00:26:11;;;;;;;1.40;1.30;;;21.10;65.10;;;;;;5133804;27;20891;-65
2021/08/02 00:28:36;;;;;;;2.15;1.10;;;21.00;65.10;;;;;;5098778;27;20168;-64
2021/08/02 00:31:01;;;;;;;1.23;0.98;;;21.00;65.10;;;;;;5115982;27;20206;-64
2021/08/02 00:33:27;;;;;;;1.48;1.02;;;21.00;65.10;;;;;;5114773;27;20161;-66
2021/08/02 00:36:20;;;;;;;1.10;1.02;;;21.00;65.10;;;;;;5134399;27;20169;-66
2021/08/02 00:38:47;;;;;;;1.20;1.00;;;21.00;65.10;;;;;;5134287;27;20629;-65
2021/08/02 00:41:28;;;;;;;1.08;0.95;;;21.00;65.10;;;;;;5114879;27;20623;-65
2021/08/02 00:44:13;;;;;;;1.92;1.20;;;21.00;65.10;;;;;;5134351;27;20259;-65
2021/08/02 00:46:39;;;;;;;1.05;1.05;;;21.00;65.10;;;;;;5133774;27;20189;-64
2021/08/02 00:49:06;;;;;;;1.23;0.85;;;20.90;65.10;;;;;;5133366;27;20584;-65
2021/08/02 00:51:38;;;;;;;1.10;1.00;;;21.00;65.20;;;;;;5133463;27;20168;-64
2021/08/02 00:54:04;;;;;;;1.30;0.90;;;21.00;65.10;;;;;;5133174;27;20611;-66
2021/08/02 00:56:31;;;;;;;1.80;1.25;;;21.00;65.20;;;;;;5133700;27;20187;-64
2021/08/02 00:58:59;;;;;;;1.30;1.20;;;20.90;65.10;;;;;;5134014;27;20498;-65
2021/08/02 01:01:25;;;;;;;1.45;1.30;;;21.00;65.20;;;;;;5114317;27;20239;-65
2021/08/02 01:03:50;;;;;;;1.17;1.08;;;21.00;65.10;;;;;;5115285;27;20634;-65
2021/08/02 01:06:16;;;;;;;1.20;1.10;;;21.00;65.20;;;;;;5098099;27;20187;-65
2021/08/02 01:08:41;;;;;;;1.42;1.17;;;20.90;65.10;;;;;;5114595;27;20169;-64
2021/08/02 01:11:09;;;;;;;1.58;1.02;;;21.00;65.10;;;;;;5098465;27;20201;-65
2021/08/02 01:13:35;;;;;;;1.75;1.17;;;20.90;65.10;;;;;;5133271;27;20594;-65
2021/08/02 01:16:02;;;;;;;1.10;0.98;;;20.90;65.10;;;;;;5132867;27;20184;-64
2021/08/02 01:18:28;;;;;;;1.08;1.08;;;20.90;65.10;;;;;;5132900;27;20635;-64
2021/08/02 01:20:54;;;;;;;1.25;1.00;;;20.90;65.10;;;;;;5098243;27;20211;-64
2021/08/02 01:23:20;;;;;;;1.35;1.17;;;20.90;65.10;;;;;;5132538;27;20168;-64
2021/08/02 01:25:46;;;;;;;1.35;1.00;;;20.90;65.10;;;;;;5133478;27;20253;-64
2021/08/02 01:28:14;;;;;;;1.05;0.95;;;20.90;65.10;;;;;;5133514;27;20606;-65
2021/08/02 01:30:42;;;;;;;0.98;0.98;;;20.90;65.10;;;;;;5132169;27;20173;-65
2021/08/02 01:33:08;;;;;;;1.67;0.98;;;20.90;65.10;;;;;;5133216;27;20247;-65
2021/08/02 01:35:34;;;;;;;2.10;1.17;;;20.90;65.10;;;;;;5114770;27;20650;-65
2021/08/02 01:38:00;;;;;;;1.40;1.30;;;20.90;65.10;;;;;;5132535;27;20276;-65
2021/08/02 01:40:27;;;;;;;1.70;1.00;;;20.90;65.10;;;;;;5114354;27;20258;-65
2021/08/02 01:42:52;;;;;;;0.88;0.88;;;20.90;65.10;;;;;;5133070;27;20255;-64
2021/08/02 01:45:17;;;;;;;2.03;1.17;;;20.90;65.10;;;;;;5132225;27;20229;-65
2021/08/02 01:48:00;;;;;;;0.95;0.95;;;20.90;65.10;;;;;;5132872;27;20168;-64
2021/08/02 01:51:03;;;;;;;1.77;0.90;;;20.80;65.10;;;;;;5097085;27;20184;-65
2021/08/02 01:53:35;;;;;;;1.30;1.20;;;20.90;65.10;;;;;;5132716;27;20168;-65
2021/08/02 01:56:05;;;;;;;0.80;0.80;;;20.80;65.10;;;;;;5115109;27;20233;-66
2021/08/02 01:58:32;;;;;;;1.63;1.00;;;20.90;65.20;;;;;;5113698;27;20295;-65
2021/08/02 02:00:58;;;;;;;0.80;0.80;;;20.90;65.10;;;;;;5097534;27;20212;-65
2021/08/02 02:03:24;;;;;;;1.15;1.05;;;20.80;65.10;;;;;;5114260;27;20172;-65
2021/08/02 02:05:57;;;;;;;1.20;1.10;;;20.80;65.00;;;;;;5097001;27;20267;-66
2021/08/02 02:08:24;;;;;;;1.23;1.13;;;20.80;65.00;;;;;;5114750;27;20175;-65
2021/08/02 02:10:54;;;;;;;1.38;1.00;;;20.80;65.10;;;;;;5097385;27;20252;-65
2021/08/02 02:13:24;;;;;;;1.45;1.05;;;20.80;65.10;;;;;;5131597;27;20605;-64
2021/08/02 02:15:52;;;;;;;1.00;0.80;;;20.80;65.10;;;;;;5132635;27;20212;-66
2021/08/02 02:18:18;;;;;;;0.90;0.90;;;20.80;65.50;;;;;;5113468;28;20173;-64
2021/08/02 02:20:44;;;;;;;1.02;0.93;;;20.80;65.10;;;;;;5113464;27;20331;-65
2021/08/02 02:23:11;;;;;;;0.93;0.93;;;20.80;65.10;;;;;;5132367;27;20614;-65
2021/08/02 02:25:38;;;;;;;0.90;0.90;;;20.80;65.10;;;;;;5096477;27;20202;-65
2021/08/02 02:28:03;;;;;;;1.20;1.10;;;20.80;65.30;;;;;;5132294;27;20176;-66
2021/08/02 02:30:29;;;;;;;0.88;0.82;;;20.80;65.10;;;;;;5113906;27;20183;-64
2021/08/02 02:32:54;;;;;;;1.20;1.00;;;20.80;65.10;;;;;;5096511;28;20211;-64
2021/08/02 02:35:21;;;;;;;1.15;0.90;;;20.80;65.10;;;;;;5113550;28;20175;-65
2021/08/02 02:37:47;;;;;;;1.13;1.10;;;20.80;65.10;;;;;;5114055;28;20197;-65
2021/08/02 02:40:13;;;;;;;1.08;0.90;;;20.80;65.10;;;;;;5113188;28;20212;-65
2021/08/02 02:42:38;;;;;;;1.35;1.08;;;20.70;65.00;;;;;;5113705;28;20172;-65
2021/08/02 02:45:04;;;;;;;1.05;0.85;;;20.80;65.10;;;;;;5114091;28;20653;-65
2021/08/02 02:47:30;;;;;;;1.33;1.23;;;20.80;65.10;;;;;;5131279;28;20179;-64
2021/08/02 02:49:56;;;;;;;1.00;1.00;;;20.80;65.10;;;;;;5132186;28;20172;-64
2021/08/02 02:52:22;;;;;;;1.40;1.30;;;20.80;65.10;;;;;;5113465;28;20179;-65
2021/08/02 02:54:48;;;;;;;0.82;0.82;;;20.70;65.00;;;;;;5095859;28;20179;-65
2021/08/02 02:57:14;;;;;;;1.00;0.90;;;20.70;65.00;;;;;;5114016;28;20252;-65
2021/08/02 02:59:39;;;;;;;1.15;1.05;;;20.70;65.00;;;;;;5131663;28;20263;-65
2021/08/02 03:02:05;;;;;;;1.23;1.08;;;20.70;65.00;;;;;;5130925;28;20175;-66
2021/08/02 03:04:32;;;;;;;0.98;0.90;;;20.70;65.00;;;;;;5113300;28;20169;-65
2021/08/02 03:06:57;;;;;;;1.17;1.00;;;20.70;65.00;;;;;;5113647;28;20176;-65
2021/08/02 03:09:23;;;;;;;1.10;1.00;;;20.70;65.00;;;;;;5112641;28;20275;-65
2021/08/02 03:11:49;;;;;;;0.93;0.93;;;20.70;65.00;;;;;;5113720;28;20304;-65
2021/08/02 03:14:17;;;;;;;1.00;1.00;;;20.70;65.00;;;;;;5131830;28;20161;-65
2021/08/02 03:16:43;;;;;;;1.00;1.00;;;20.70;65.10;;;;;;5112706;28;20173;-64
2021/08/02 03:19:08;;;;;;;1.50;1.00;;;20.70;65.10;;;;;;5131692;28;20220;-65
2021/08/02 03:21:34;;;;;;;1.05;1.05;;;20.70;65.10;;;;;;5131061;28;20217;-64
2021/08/02 03:24:15;;;;;;;0.85;0.82;;;20.70;65.10;;;;;;5131403;28;20179;-64
2021/08/02 03:26:50;;;;;;;1.20;1.10;;;20.70;65.00;;;;;;5098332;28;20164;-64
2021/08/02 03:29:36;;;;;;;1.23;1.13;;;20.70;65.00;;;;;;5096717;28;20271;-64
2021/08/02 03:32:07;;;;;;;0.95;0.93;;;20.70;65.00;;;;;;5115934;28;20686;-65
2021/08/02 03:34:33;;;;;;;1.00;1.00;;;20.70;65.00;;;;;;5113168;28;20255;-65
2021/08/02 03:36:59;;;;;;;1.35;0.88;;;20.70;65.10;;;;;;5112843;28;20232;-64
2021/08/02 03:39:25;;;;;;;0.88;0.88;;;20.60;65.00;;;;;;5114155;27;20523;-66
2021/08/02 03:41:51;;;;;;;0.88;0.88;;;20.70;65.00;;;;;;5099953;27;20299;-64
2021/08/02 03:44:17;;;;;;;1.10;1.00;;;20.70;65.00;;;;;;5099033;27;20180;-64
2021/08/02 03:46:43;;;;;;;1.15;1.05;;;20.70;65.00;;;;;;5135468;27;20180;-66
2021/08/02 03:49:09;;;;;;;1.15;0.80;;;20.60;65.00;;;;;;5117154;27;20698;-66
2021/08/02 03:51:35;;;;;;;1.42;0.98;;;20.70;65.00;;;;;;5134501;27;20533;-66
2021/08/02 03:54:01;;;;;;;1.83;0.90;;;20.60;65.00;;;;;;5135416;27;20262;-67
2021/08/02 03:56:27;;;;;;;1.20;0.93;;;20.60;65.00;;;;;;5135172;27;20196;-66
2021/08/02 03:58:52;;;;;;;1.10;1.00;;;20.60;65.00;;;;;;5115868;27;20168;-66
2021/08/02 04:01:18;;;;;;;0.98;0.90;;;20.60;65.00;;;;;;5134736;27;20679;-67
2021/08/02 04:03:43;;;;;;;0.90;0.90;;;20.70;65.10;;;;;;5135291;27;20165;-66
2021/08/02 04:06:10;;;;;;;1.20;1.10;;;20.60;65.00;;;;;;5134522;27;20173;-67
2021/08/02 04:08:35;;;;;;;1.65;0.95;;;20.60;65.00;;;;;;5134673;27;20569;-67
2021/08/02 04:11:01;;;;;;;1.50;1.02;;;20.60;65.00;;;;;;5134405;27;20180;-67
2021/08/02 04:13:26;;;;;;;0.85;0.85;;;20.60;65.10;;;;;;5135084;27;20187;-66
2021/08/02 04:15:52;;;;;;;1.15;0.93;;;20.60;65.00;;;;;;5134992;27;20184;-66
2021/08/02 04:18:17;;;;;;;1.00;0.90;;;20.60;65.00;;;;;;5133816;27;20180;-65
2021/08/02 04:20:43;;;;;;;0.98;0.98;;;20.60;65.00;;;;;;5134703;27;20291;-66
2021/08/02 04:23:09;;;;;;;1.00;1.00;;;20.60;65.00;;;;;;5134971;27;20192;-66
2021/08/02 04:25:35;;;;;;;2.03;1.00;;;20.60;65.00;;;;;;5133703;27;20194;-66
2021/08/02 04:28:00;;;;;;;1.27;1.17;;;20.60;65.00;;;;;;5134538;27;20176;-66
2021/08/02 04:30:26;;;;;;;2.58;1.25;;;20.60;65.00;;;;;;5134795;27;20173;-66
2021/08/02 04:32:51;;;;;;;0.70;0.70;;;20.60;65.00;;;;;;5133415;27;20541;-66
2021/08/02 04:35:17;;;;;;;1.08;1.05;;;20.60;65.00;;;;;;5134477;27;20172;-66
2021/08/02 04:37:42;;;;;;;0.82;0.82;;;20.60;65.00;;;;;;5134787;27;20183;-67
2021/08/02 04:40:08;;;;;;;1.35;1.25;;;20.60;65.00;;;;;;5133355;27;20200;-67
2021/08/02 04:42:37;;;;;;;1.40;0.90;;;20.60;65.00;;;;;;5134107;27;20271;-65
2021/08/02 04:45:04;;;;;;;0.75;0.75;;;20.60;65.00;;;;;;5134363;27;20244;-65
2021/08/02 04:47:29;;;;;;;1.08;1.00;;;20.60;64.90;;;;;;5133325;27;20252;-65
2021/08/02 04:49:54;;;;;;;1.00;0.93;;;20.60;64.90;;;;;;5134103;27;20195;-66
2021/08/02 04:52:20;;;;;;;1.40;1.00;;;20.60;65.00;;;;;;5133565;27;20184;-65
2021/08/02 04:54:46;;;;;;;1.05;1.05;;;20.60;64.90;;;;;;5133270;27;20519;-65
2021/08/02 04:57:12;;;;;;;1.05;0.95;;;20.60;64.90;;;;;;5134167;27;20199;-65
2021/08/02 04:59:39;;;;;;;1.13;0.90;;;20.60;64.90;;;;;;5133263;27;20619;-66
2021/08/02 05:02:05;;;;;;;0.93;0.85;;;20.60;65.00;;;;;;5133489;27;20176;-66
2021/08/02 05:04:31;;;;;;;1.02;0.85;;;20.60;64.90;;;;;;5133560;27;20535;-66
2021/08/02 05:06:56;;;;;;;0.88;0.88;;;20.60;64.90;;;;;;5134246;27;20177;-66
2021/08/02 05:09:22;;;;;;;1.08;1.08;;;20.60;64.90;;;;;;5132823;27;20228;-66
2021/08/02 05:11:47;;;;;;;1.25;1.15;;;20.60;64.90;;;;;;5133798;27;20617;-66
2021/08/02 05:14:13;;;;;;;0.90;0.90;;;20.60;64.90;;;;;;5133416;27;20229;-66
2021/08/02 05:16:38;;;;;;;1.30;1.20;;;20.60;64.90;;;;;;5133169;27;20177;-65
2021/08/02 05:19:04;;;;;;;1.27;1.00;;;20.60;65.80;;;;;;5133577;27;20224;-65
2021/08/02 05:21:29;;;;;;;1.13;0.90;;;20.60;64.90;;;;;;5132741;27;20211;-65
2021/08/02 05:23:55;;;;;;;1.27;1.17;;;20.60;64.90;;;;;;5133500;27;20169;-66
2021/08/02 05:26:20;;;;;;;2.17;1.05;;;20.60;64.80;;;;;;5133236;27;20179;-65
2021/08/02 05:28:46;;;;;;;0.90;0.90;;;20.60;64.80;;;;;;5132899;27;20626;-65
2021/08/02 05:31:11;;;;;;;0.98;0.80;;;20.60;64.90;;;;;;5133514;27;20539;-65
2021/08/02 05:33:37;;;;;;;1.15;1.05;;;20.60;64.90;;;;;;5133162;27;20626;-65
2021/08/02 05:36:03;;;;;;;2.08;0.90;;;20.60;64.90;;;;;;5132624;27;20213;-65
2021/08/02 05:38:30;;;;;;;2.13;0.90;;;20.60;64.80;;;;;;5133044;27;20279;-65
2021/08/02 05:40:55;;;;;;;0.88;0.88;;;20.60;64.80;;;;;;5133100;27;20204;-64
2021/08/02 05:43:21;;;;;;;0.75;0.75;;;20.60;64.80;;;;;;5132288;27;20172;-65
2021/08/02 05:45:46;;;;;;;1.50;0.98;;;20.60;64.80;;;;;;5133203;27;20277;-64
2021/08/02 05:48:12;;;;;;;0.95;0.85;;;20.60;64.80;;;;;;5097977;27;20184;-65
2021/08/02 05:50:37;;;;;;;1.13;1.08;;;20.60;65.20;;;;;;5113644;27;20164;-65
2021/08/02 05:53:03;;;;;;;1.02;0.90;;;20.60;64.80;;;;;;5133033;27;20172;-65
2021/08/02 05:55:28;;;;;;;1.08;0.90;;;20.60;64.80;;;;;;5132557;27;20684;-65
2021/08/02 05:57:54;;;;;;;0.95;0.95;;;20.60;64.80;;;;;;5131897;27;20622;-65
2021/08/02 06:00:19;;;;;;;0.77;0.77;;;20.60;64.80;;;;;;5132723;27;20306;-65
2021/08/02 06:02:45;;;;;;;1.08;0.98;;;20.60;64.80;;;;;;5132544;27;20578;-65
2021/08/02 06:05:10;;;;;;;0.82;0.82;;;20.70;64.70;;;;;;5132326;27;20579;-66
2021/08/02 06:07:39;;;;;;;0.80;0.80;;;20.70;64.80;;;;;;5132888;27;20191;-66
2021/08/02 06:10:05;;;;;;;1.02;0.93;;;20.70;64.70;;;;;;5132680;27;20178;-66
2021/08/02 06:12:30;;;;;;;1.65;0.90;;;20.70;64.70;;;;;;5131607;27;20183;-65
2021/08/02 06:14:56;;;;;;;1.27;0.70;;;20.60;64.60;;;;;;5132781;27;20176;-65
2021/08/02 06:17:21;;;;;;;1.30;1.20;;;20.70;64.70;;;;;;5132521;27;20199;-65
2021/08/02 06:19:47;;;;;;;1.17;1.08;;;20.70;64.70;;;;;;5131816;27;20228;-65
2021/08/02 06:22:13;;;;;;;1.10;1.00;;;20.70;64.60;;;;;;5132715;27;20200;-64
2021/08/02 06:24:39;;;;;;;2.03;1.00;;;20.70;64.70;;;;;;5131528;27;20482;-66
2021/08/02 06:27:05;;;;;;;0.90;0.90;;;20.70;64.60;;;;;;5132344;27;20179;-66
2021/08/02 06:29:30;;;;;;;1.15;1.05;;;20.70;64.60;;;;;;5132296;27;20183;-65
2021/08/02 06:31:56;;;;;;;1.48;1.25;;;20.70;64.70;;;;;;5132145;27;20176;-66
2021/08/02 06:34:21;;;;;;;1.48;0.85;;;20.70;64.60;;;;;;5132206;27;20233;-68
2021/08/02 06:36:47;;;;;;;1.20;1.05;;;20.70;64.60;;;;;;5132429;27;20591;-68
2021/08/02 06:39:12;;;;;;;1.08;0.98;;;20.70;64.70;;;;;;5131691;28;20168;-67
2021/08/02 06:41:38;;;;;;;1.52;0.73;;;20.70;64.60;;;;;;5131790;28;20211;-67
2021/08/02 06:44:06;;;;;;;3.15;1.00;;;20.80;64.90;;;;;;5132952;28;20611;-67
2021/08/02 06:46:32;;;;;;;1.73;0.90;;;20.80;64.80;;;;;;5131934;28;20176;-67
2021/08/02 06:48:57;;;;;;;1.63;0.95;;;20.70;64.80;;;;;;5132613;28;20168;-67
2021/08/02 06:51:23;;;;;;;4.80;1.33;;;20.80;64.90;;;;;;5132433;28;20187;-68
2021/08/02 06:53:48;;;;;;;1.67;1.10;;;20.80;64.80;;;;;;5131809;28;20172;-67
2021/08/02 06:56:14;;;;;;;1.63;1.25;;;20.80;64.70;;;;;;5132112;28;20544;-66
2021/08/02 06:58:39;;;;;;;4.25;0.90;;;20.90;64.80;;;;;;5132223;28;20214;-66
2021/08/02 07:01:05;;;;;;;1.77;1.20;;;20.90;64.70;;;;;;5131539;28;20561;-66
2021/08/02 07:03:30;;;;;;;1.02;0.88;;;20.90;64.70;;;;;;5131987;28;20196;-68
2021/08/02 07:05:56;;;;;;;1.55;1.10;;;20.90;64.70;;;;;;5131876;28;20209;-68
2021/08/02 07:08:21;;;;;;;4.60;1.25;;;20.90;64.70;;;;;;5130991;28;20169;-66
2021/08/02 07:10:47;;;;;;;2.72;1.45;;;20.90;64.60;;;;;;5132093;28;20187;-66
2021/08/02 07:13:12;;;;;;;2.75;1.45;;;20.90;64.70;;;;;;5133112;27;20501;-66
2021/08/02 07:15:38;;;;;;;2.22;1.27;;;20.90;64.80;;;;;;5134937;27;20175;-65
2021/08/02 07:18:03;;;;;;;1.50;1.10;;;21.00;64.70;;;;;;5135957;27;20176;-68
2021/08/02 07:20:29;;;;;;;3.25;1.30;;;21.00;64.70;;;;;;5135526;27;20224;-67
2021/08/02 07:22:54;;;;;;;2.22;1.10;;;20.90;64.50;;;;;;5135182;27;20534;-65
2021/08/02 07:25:20;;;;;;;1.13;1.02;;;21.00;64.60;;;;;;5135397;27;20172;-65
2021/08/02 07:27:46;;;;;;;2.78;1.33;;;21.00;64.60;;;;;;5136074;27;20168;-66
2021/08/02 07:30:11;;;;;;;2.05;1.30;;;21.00;64.60;;;;;;5135021;27;20175;-67
2021/08/02 07:32:37;;;;;;;1.80;1.17;;;21.00;64.50;;;;;;5135336;27;20175;-68
2021/08/02 07:35:03;;;;;;;1.67;1.52;;;21.10;64.60;;;;;;5135063;27;20183;-68
2021/08/02 07:37:28;;;;;;;3.05;1.05;;;21.00;64.50;;;;;;5135314;27;20168;-68
2021/08/02 07:39:54;;;;;;;2.25;1.20;;;21.10;64.60;;;;;;5135475;27;20272;-68
2021/08/02 07:42:19;;;;;;;2.53;1.08;;;21.10;64.60;;;;;;5134829;27;20169;-68
2021/08/02 07:44:45;;;;;;;2.05;1.23;;;21.10;64.40;;;;;;5135697;27;20683;-68
2021/08/02 07:47:10;;;;;;;2.47;1.10;;;21.10;64.50;;;;;;5135430;27;20200;-68
2021/08/02 07:49:36;;;;;;;2.08;1.35;;;21.20;64.40;;;;;;5134484;27;20173;-68
2021/08/02 07:52:01;;;;;;;1.90;1.15;;;21.20;64.40;;;;;;5135271;27;20180;-68
2021/08/02 07:54:29;;;;;;;2.75;1.23;;;21.20;64.40;;;;;;5135228;27;20183;-67
2021/08/02 07:56:55;;;;;;;1.35;1.25;;;21.10;64.40;;;;;;5134672;27;20198;-68
2021/08/02 07:59:20;;;;;;;2.60;1.23;;;21.10;64.70;;;;;;5134751;27;20550;-67
2021/08/02 08:01:46;;;;;;;1.23;1.10;;;21.20;64.70;;;;;;5135048;27;20258;-67
2021/08/02 08:04:11;;;;;;;2.60;1.42;;;21.20;64.60;;;;;;5134327;27;20168;-66
2021/08/02 08:06:37;;;;;;;2.80;1.48;;;21.20;64.40;;;;;;5134637;27;20180;-68
2021/08/02 08:09:02;;;;;;;2.67;1.30;;;21.30;64.30;;;;;;5134873;27;20231;-67
2021/08/02 08:11:28;;;;;;;2.03;1.40;;;21.40;64.30;;;;;;5134034;27;20219;-68
2021/08/02 08:13:53;;;;;;;2.83;1.15;;;21.40;64.20;;;;;;5134818;27;20508;-68
2021/08/02 08:16:19;;;;;;;1.55;1.30;;;21.30;64.40;;;;;;5134358;27;20540;-67
2021/08/02 08:18:44;;;;;;;2.67;1.50;;;21.30;64.50;;;;;;5133702;27;20216;-67
2021/08/02 08:21:10;;;;;;;1.42;1.33;;;21.30;64.50;;;;;;5134421;27;20695;-67
2021/08/02 08:23:35;;;;;;;2.55;1.42;;;21.30;64.50;;;;;;5134144;27;20191;-67
2021/08/02 08:26:01;;;;;;;2.63;1.40;;;21.30;64.40;;;;;;5133147;27;20187;-67
2021/08/02 08:28:26;;;;;;;2.15;1.10;;;21.30;64.40;;;;;;5134277;27;20184;-67
2021/08/02 08:30:52;;;;;;;2.25;1.10;;;21.30;64.60;;;;;;5134398;27;20176;-67
2021/08/02 08:33:17;;;;;;;2.78;1.40;;;21.20;64.80;;;;;;5133202;27;20172;-67
2021/08/02 08:35:43;;;;;;;1.70;1.15;;;21.20;64.90;;;;;;5134098;27;20538;-68
2021/08/02 08:38:09;;;;;;;3.35;1.70;;;21.20;64.80;;;;;;5134099;27;20176;-67
2021/08/02 08:40:35;;;;;;;2.88;1.20;;;21.20;64.90;;;;;;5133279;27;20345;-68
2021/08/02 08:43:01;;;;;;;1.77;1.38;;;21.20;64.90;;;;;;5134257;27;20184;-67
2021/08/02 08:45:27;;;;;;;2.67;1.40;;;21.20;64.90;;;;;;5133263;27;20233;-68
2021/08/02 08:47:54;;;;;;;2.20;1.45;;;21.20;64.80;;;;;;5134051;27;20200;-67
2021/08/02 08:50:20;;;;;;;2.63;1.42;;;21.20;64.70;;;;;;5133580;27;20533;-67
2021/08/02 08:52:45;;;;;;;1.73;1.20;;;21.30;64.50;;;;;;5133051;27;20685;-67
2021/08/02 08:55:12;;;;;;;1.98;1.45;;;21.30;64.40;;;;;;5098826;27;20200;-68
2021/08/02 08:57:38;;;;;;;2.15;1.02;;;21.30;64.50;;;;;;5133662;27;20183;-67
2021/08/02 09:00:06;;;;;;;3.38;1.20;;;21.30;64.60;;;;;;5133263;27;20589;-68
2021/08/02 09:02:31;;;;;;;2.08;1.20;;;21.30;64.50;;;;;;5133473;27;20191;-67
2021/08/02 09:04:58;;;;;;;2.40;1.17;;;21.30;64.70;;;;;;5133536;27;20538;-67
2021/08/02 09:07:34;;;;;;;1.77;1.02;;;21.30;64.70;;;;;;5132698;27;20184;-68
2021/08/02 09:10:00;;;;;;;2.17;1.10;;;21.30;64.80;;;;;;5133329;27;20259;-68
2021/08/02 09:12:25;;;;;;;2.75;1.33;;;21.20;64.80;;;;;;5133378;27;20285;-67
2021/08/02 09:14:58;;;;;;;1.58;0.90;;;21.20;64.90;;;;;;5114241;27;20176;-67
2021/08/02 09:17:28;;;;;;;2.38;0.98;;;21.20;65.00;;;;;;5133024;27;20502;-67
2021/08/02 09:19:54;;;;;;;1.45;1.20;;;21.20;65.10;;;;;;5132958;27;20224;-66
2021/08/02 09:22:29;;;;;;;1.33;1.10;;;21.20;65.20;;;;;;5132492;27;20229;-67
2021/08/02 09:25:12;;;;;;;3.08;1.35;;;21.20;65.20;;;;;;5133107;27;20726;-67
2021/08/02 09:27:38;;;;;;;2.20;1.27;;;21.10;65.10;;;;;;5131880;27;20201;-67
2021/08/02 09:30:23;;;;;;;1.35;0.90;;;21.20;65.10;;;;;;5133013;27;20196;-67
2021/08/02 09:32:56;;;;;;;2.17;1.00;;;21.10;65.00;;;;;;5133368;27;20207;-68
2021/08/02 09:35:28;;;;;;;1.75;1.20;;;21.20;65.00;;;;;;5131866;27;20575;-67
2021/08/02 09:38:03;;;;;;;3.60;1.40;;;21.20;64.90;;;;;;5131775;27;20214;-67
2021/08/02 09:40:36;;;;;;;0.98;0.98;;;21.20;64.80;;;;;;5132661;27;20203;-67
2021/08/02 09:43:02;;;;;;;1.80;1.20;;;21.30;64.80;;;;;;5132359;27;20184;-67
2021/08/02 09:45:27;;;;;;;2.22;1.15;;;21.30;64.80;;;;;;5132428;27;20161;-68
2021/08/02 09:47:53;;;;;;;1.45;1.17;;;21.30;64.70;;;;;;5132837;27;20200;-67
2021/08/02 09:50:31;;;;;;;1.50;1.00;;;21.30;64.70;;;;;;5131684;27;20196;-67
2021/08/02 09:52:59;;;;;;;3.10;1.30;;;21.30;64.70;;;;;;5132745;27;20172;-67
2021/08/02 09:55:25;;;;;;;2.55;1.15;;;21.30;64.60;;;;;;5131529;27;20184;-68
2021/08/02 09:57:52;;;;;;;1.50;1.00;;;21.30;64.50;;;;;;5132042;27;20236;-67
2021/08/02 10:00:18;;;;;;;1.15;0.98;;;21.30;64.50;;;;;;5132388;27;20207;-68
2021/08/02 10:02:53;;;;;;;1.70;1.15;;;21.30;64.50;;;;;;5131902;27;20173;-68
2021/08/02 10:05:19;;;;;;;1.85;1.05;;;21.30;64.60;;;;;;5097004;27;20168;-67
2021/08/02 10:07:45;;;;;;;1.52;1.00;;;21.30;64.60;;;;;;5132361;27;20180;-68
2021/08/02 10:10:11;;;;;;;1.27;1.15;;;21.30;64.60;;;;;;5131887;27;20180;-68
2021/08/02 10:12:41;;;;;;;1.88;1.05;;;21.30;64.70;;;;;;5132363;27;20176;-67
2021/08/02 10:15:27;;;;;;;1.17;0.90;;;21.30;64.70;;;;;;5132258;27;20184;-67
2021/08/02 10:17:55;;;;;;;0.98;0.90;;;21.20;64.60;;;;;;5131721;27;20202;-67
2021/08/02 10:20:23;;;;;;;1.98;1.00;;;21.20;64.70;;;;;;5092565;28;20226;-67
2021/08/02 10:22:49;;;;;;;1.42;1.15;;;21.20;64.70;;;;;;5091249;28;20670;-67
2021/08/02 10:25:15;;;;;;;1.95;1.10;;;21.20;64.80;;;;;;5090967;28;20258;-67
2021/08/02 10:27:42;;;;;;;2.17;1.38;;;21.20;64.80;;;;;;5091431;28;20178;-68
2021/08/02 10:30:28;;;;;;;1.40;1.25;;;21.20;64.50;;;;;;5090146;28;20481;-68
2021/08/02 10:32:57;;;;;;;1.55;1.08;;;21.20;64.40;;;;;;5090209;28;20181;-67
2021/08/02 10:35:45;;;;;;;1.80;1.20;;;21.20;64.00;;;;;;5091234;28;20174;-68
2021/08/02 10:38:14;;;;;;;2.28;1.30;;;21.20;63.50;;;;;;5090788;28;20174;-66
2021/08/02 10:40:43;;;;;;;1.65;1.33;;;21.10;63.00;;;;;;5090746;28;20212;-67
2021/08/02 10:43:09;;;;;;;1.70;1.10;;;21.20;62.90;;;;;;5091022;28;20624;-67
2021/08/02 10:45:34;;;;;;;2.15;1.00;;;21.20;62.60;;;;;;5090682;28;20177;-66
2021/08/02 10:48:00;;;;;;;1.98;1.38;;;21.20;62.30;;;;;;5091898;28;20166;-67
2021/08/02 10:50:27;;;;;;;1.40;1.30;;;21.20;62.00;;;;;;5095009;28;20173;-66
2021/08/02 10:52:54;;;;;;;1.85;1.40;;;21.20;62.00;;;;;;5094849;28;20185;-67
2021/08/02 10:55:20;;;;;;;1.80;1.17;;;21.30;62.10;;;;;;5093666;28;20564;-67
2021/08/02 10:58:04;;;;;;;1.52;1.30;;;21.30;61.50;;;;;;5095346;28;20173;-66
2021/08/02 11:00:29;;;;;;;2.20;1.63;;;21.40;61.70;;;;;;5094406;28;20233;-67
2021/08/02 11:02:56;;;;;;;2.25;1.15;;;21.40;61.70;;;;;;5095427;28;20580;-68
2021/08/02 11:05:22;;;;;;;2.63;1.10;;;21.50;61.70;;;;;;5094901;28;20182;-68
2021/08/02 11:07:48;;;;;;;2.60;1.45;;;21.40;61.60;;;;;;5094552;28;20174;-68
2021/08/02 11:10:16;;;;;;;1.20;1.10;;;21.50;62.50;;;;;;5095083;28;20180;-66
2021/08/02 11:12:46;;;;;;;1.20;0.90;;;21.50;62.00;;;;;;5094535;28;20178;-67
2021/08/02 11:15:11;;;;;;;1.17;0.90;;;21.50;61.90;;;;;;5094290;28;20174;-65
2021/08/02 11:17:40;;;;;;;1.15;1.02;;;21.60;62.00;;;;;;5094866;28;20182;-67
2021/08/02 11:20:08;;;;;;;2.17;1.48;;;21.60;62.70;;;;;;5117808;27;20265;-64
2021/08/02 11:22:40;;;;;;;2.25;1.30;;;21.60;62.10;;;;;;5123082;27;20195;-64
2021/08/02 11:25:07;;;;;;;5.28;1.60;;;21.60;62.20;;;;;;5123349;27;20630;-64
2021/08/02 11:27:33;;;;;;;2.75;1.38;;;21.60;62.20;;;;;;5123954;27;20634;-64
2021/08/02 11:29:59;;;;;;;3.60;1.50;;;21.70;62.40;;;;;;5105140;27;20176;-65
2021/08/02 11:32:24;;;;;;;1.55;1.27;;;21.60;62.40;;;;;;5115976;27;20180;-65
2021/08/02 11:35:01;;;;;;;1.63;1.10;;;21.60;62.70;;;;;;5114070;28;20172;-67
2021/08/02 11:37:27;;;;;;;1.58;1.23;;;21.60;62.70;;;;;;5114472;28;20180;-66
2021/08/02 11:40:07;;;;;;;1.75;1.20;;;21.60;62.70;;;;;;5115132;28;20213;-67
2021/08/02 11:42:33;;;;;;;1.58;1.23;;;21.60;62.90;;;;;;5113855;28;20173;-67
2021/08/02 11:45:03;;;;;;;2.13;1.05;;;21.70;62.90;;;;;;5114675;28;20497;-67
2021/08/02 11:47:35;;;;;;;1.65;1.10;;;21.70;62.80;;;;;;5114314;28;20177;-67
2021/08/02 11:50:00;;;;;;;1.10;1.00;;;21.70;62.80;;;;;;5114120;28;20182;-67
2021/08/02 11:52:26;;;;;;;4.10;1.10;;;21.70;62.80;;;;;;5096161;28;20507;-66
2021/08/02 11:55:09;;;;;;;4.32;1.90;;;21.80;62.90;;;;;;5114719;28;20169;-68
2021/08/02 11:57:34;;;;;;;2.17;0.95;;;21.80;62.80;;;;;;5114066;28;20177;-67
2021/08/02 12:00:17;;;;;;;2.97;1.15;;;21.80;62.70;;;;;;5113245;28;20264;-67
2021/08/02 12:02:44;;;;;;;1.95;1.08;;;21.80;62.80;;;;;;5114162;28;20181;-67
2021/08/02 12:05:22;;;;;;;2.08;1.10;;;21.90;62.80;;;;;;5114579;28;20177;-66
2021/08/02 12:07:48;;;;;;;2.60;1.20;;;21.80;62.70;;;;;;5114585;28;20548;-67
2021/08/02 12:10:15;;;;;;;2.15;1.10;;;21.80;62.90;;;;;;5095202;28;20657;-67
2021/08/02 12:12:55;;;;;;;3.58;1.15;;;21.80;62.90;;;;;;5114130;28;20165;-66
2021/08/02 12:15:20;;;;;;;1.67;0.82;;;21.80;62.90;;;;;;5113967;28;20289;-66
2021/08/02 12:17:49;;;;;;;1.92;1.27;;;21.90;62.80;;;;;;5113045;28;20193;-66
2021/08/02 12:20:15;;;;;;;2.95;1.10;;;21.90;62.70;;;;;;5113844;28;20235;-66
2021/08/02 12:22:41;;;;;;;1.20;1.10;;;21.90;62.70;;;;;;5113903;28;20173;-65
2021/08/02 12:25:07;;;;;;;2.13;1.00;;;21.80;62.80;;;;;;5113052;28;20196;-66
2021/08/02 12:27:32;;;;;;;1.48;1.02;;;21.80;62.80;;;;;;5113537;28;20169;-66
2021/08/02 12:30:09;;;;;;;0.90;0.85;;;21.80;62.80;;;;;;5113804;28;20242;-66
2021/08/02 12:32:38;;;;;;;1.77;1.00;;;21.80;62.70;;;;;;5112788;28;20173;-66
2021/08/02 12:35:04;;;;;;;2.03;1.10;;;21.90;62.70;;;;;;5113313;28;20185;-67
2021/08/02 12:37:30;;;;;;;2.35;1.00;;;21.90;62.60;;;;;;5112659;28;20181;-66
2021/08/02 12:39:59;;;;;;;0.98;0.88;;;21.90;62.60;;;;;;5113541;28;20524;-67
2021/08/02 12:42:26;;;;;;;2.63;1.38;;;21.90;62.60;;;;;;5113495;28;20264;-66
2021/08/02 12:44:53;;;;;;;1.23;1.05;;;21.90;62.60;;;;;;5113172;28;20177;-68
2021/08/02 12:47:18;;;;;;;1.00;0.90;;;21.90;62.60;;;;;;5113579;28;20185;-68
2021/08/02 12:49:44;;;;;;;0.93;0.82;;;21.90;62.70;;;;;;5113668;28;20204;-67